Time;durP1;ratioP1;P1;durP2;ratioP2;P2;SDS_P1;SDS_P2;PMS_P1;PMS_P2;Temp;Humidity;BMP_temperature;BMP_pressure;BME280_temperature;BME280_humidity;BME280_pressure;Samples;Min_cycle;Max_cycle;Signal;HPM_P1;HPM_P2
2022/12/08 00:01:26;;;;;;;238.73;81.20;;;;;;;5.01;100.00;101107.56;5017231;28;20120;-84
2022/12/08 00:03:58;;;;;;;306.40;87.25;;;;;;;4.97;100.00;101114.13;5031213;28;20061;-86
2022/12/08 00:09:23;;;;;;;240.57;83.50;;;;;;;5.07;100.00;101111.38;5035895;28;20060;-85
2022/12/08 00:11:53;;;;;;;242.13;88.13;;;;;;;5.02;100.00;101117.09;5035524;28;20406;-82
2022/12/08 00:14:24;;;;;;;246.80;79.78;;;;;;;5.12;100.00;101119.63;5027026;28;20104;-87
2022/12/08 00:16:51;;;;;;;361.60;85.03;;;;;;;5.02;100.00;101119.72;5034899;28;20482;-83
2022/12/08 00:19:18;;;;;;;260.50;81.78;;;;;;;4.73;100.00;101125.41;5017624;28;20053;-86
2022/12/08 00:21:47;;;;;;;193.63;78.85;;;;;;;4.97;100.00;101122.03;5016220;28;20061;-83
2022/12/08 00:24:14;;;;;;;225.02;80.60;;;;;;;4.85;100.00;101131.19;5024182;28;20103;-82
2022/12/08 00:26:41;;;;;;;213.70;73.72;;;;;;;4.85;100.00;101131.19;5029170;28;20049;-85
2022/12/08 00:29:08;;;;;;;219.95;85.45;;;;;;;5.00;100.00;101132.25;5027142;28;20041;-81
2022/12/08 00:31:39;;;;;;;218.82;88.25;;;;;;;5.11;100.00;101139.84;5034791;28;20049;-84
2022/12/08 00:34:06;;;;;;;204.13;78.40;;;;;;;4.82;100.00;101148.13;5019271;28;20108;-82
2022/12/08 00:36:35;;;;;;;198.65;84.45;;;;;;;4.93;100.00;101142.59;5024186;28;20120;-85
2022/12/08 00:39:02;;;;;;;221.50;91.75;;;;;;;4.91;100.00;101151.63;5016305;28;20053;-85
2022/12/08 00:44:17;;;;;;;192.07;85.07;;;;;;;5.10;100.00;101145.28;5026408;28;20076;-82
2022/12/08 00:46:48;;;;;;;211.55;81.63;;;;;;;5.12;100.00;101157.31;5021454;28;20050;-84
2022/12/08 00:49:17;;;;;;;205.95;87.97;;;;;;;5.05;100.00;101153.63;5031208;28;20049;-85
2022/12/08 00:51:49;;;;;;;191.10;81.93;;;;;;;5.07;100.00;101146.41;5023381;28;20515;-85
2022/12/08 00:54:16;;;;;;;226.85;82.93;;;;;;;5.00;100.00;101150.69;5025300;28;20049;-86
2022/12/08 00:56:50;;;;;;;232.00;83.72;;;;;;;4.95;100.00;101143.25;5023967;28;20053;-84
2022/12/08 00:59:25;;;;;;;182.40;83.07;;;;;;;5.10;100.00;101140.84;5024923;28;20050;-84
2022/12/08 01:01:54;;;;;;;189.18;84.63;;;;;;;5.23;100.00;101143.84;5030813;23;20074;-91
2022/12/08 01:04:21;;;;;;;214.25;95.95;;;;;;;5.11;100.00;101131.13;5009473;28;20054;-94
2022/12/08 01:06:48;;;;;;;214.90;93.75;;;;;;;5.17;100.00;101144.47;5008814;28;20070;-92
2022/12/08 01:09:17;;;;;;;216.07;86.82;;;;;;;5.00;100.00;101150.69;5009381;28;20050;-92
2022/12/08 01:11:44;;;;;;;199.73;79.97;;;;;;;4.93;100.00;101139.97;5011990;28;20062;-93
2022/12/08 01:14:11;;;;;;;243.02;85.68;;;;;;;4.86;100.00;101135.47;5008432;28;20050;-94
2022/12/08 01:16:41;;;;;;;244.30;87.63;;;;;;;5.01;100.00;101142.59;5010549;28;20054;-94
2022/12/08 01:19:10;;;;;;;273.40;86.57;;;;;;;5.11;100.00;101150.38;5008869;28;20053;-92
2022/12/08 01:21:37;;;;;;;256.40;85.97;;;;;;;4.96;100.00;101144.06;5008774;28;20050;-92
2022/12/08 01:24:05;;;;;;;234.95;86.38;;;;;;;5.05;100.00;101136.06;5008971;28;20053;-94
2022/12/08 01:26:34;;;;;;;192.98;87.82;;;;;;;5.17;100.00;101141.81;5009492;28;20054;-94
2022/12/08 01:29:01;;;;;;;335.35;88.47;;;;;;;5.17;100.00;101146.28;5013609;28;20050;-92
2022/12/08 01:31:28;;;;;;;261.63;93.57;;;;;;;5.17;100.00;101155.00;5013768;28;20468;-94
2022/12/08 01:33:55;;;;;;;249.10;82.25;;;;;;;5.06;100.00;101150.03;5013937;28;20110;-95
2022/12/08 01:36:25;;;;;;;241.50;82.90;;;;;;;4.98;100.00;101142.09;5013339;28;20058;-93
2022/12/08 01:38:53;;;;;;;245.23;89.07;;;;;;;5.05;100.00;101143.97;5014002;28;20046;-94
2022/12/08 01:41:23;;;;;;;197.00;77.28;;;;;;;5.11;100.00;101134.56;5014680;28;20054;-95
2022/12/08 01:44:01;;;;;;;210.75;79.45;;;;;;;5.09;100.00;101147.09;5013301;28;20066;-95
2022/12/08 01:46:30;;;;;;;176.07;82.75;;;;;;;5.12;100.00;101152.03;5013451;28;20046;-94
2022/12/08 01:49:02;;;;;;;255.43;82.47;;;;;;;5.17;100.00;101155.00;5012759;28;20046;-94
2022/12/08 01:51:32;;;;;;;235.98;79.78;;;;;;;5.07;100.00;101153.50;5011909;28;20038;-94
2022/12/08 01:53:59;;;;;;;202.48;78.82;;;;;;;4.98;100.00;101147.38;5011793;28;20089;-94
2022/12/08 01:56:32;;;;;;;186.60;73.22;;;;;;;5.03;100.00;101142.47;5011550;28;20050;-94
2022/12/08 01:58:59;;;;;;;202.88;81.38;;;;;;;5.07;100.00;101130.63;5013971;28;20078;-94
2022/12/08 02:01:26;;;;;;;188.38;79.85;;;;;;;5.07;100.00;101133.25;5013610;28;20054;-93
2022/12/08 02:03:58;;;;;;;201.10;85.72;;;;;;;5.24;100.00;101136.78;5012098;28;20050;-94
2022/12/08 02:06:27;;;;;;;187.95;76.95;;;;;;;4.90;100.00;101134.16;5010541;28;20034;-93
2022/12/08 02:08:56;;;;;;;191.60;78.00;;;;;;;4.94;100.00;101138.97;5012897;28;20050;-93
2022/12/08 02:11:23;;;;;;;211.50;86.35;;;;;;;4.81;100.00;101147.31;5012078;28;20050;-94
2022/12/08 02:13:52;;;;;;;231.32;83.22;;;;;;;4.91;100.00;101147.19;5012256;28;20046;-94
2022/12/08 02:16:32;;;;;;;195.68;80.15;;;;;;;5.03;100.00;101153.00;5013147;28;20057;-94
2022/12/08 02:19:20;;;;;;;201.52;82.07;;;;;;;5.21;100.00;101143.19;5013968;28;20042;-94
2022/12/08 02:21:54;;;;;;;204.70;76.90;;;;;;;5.18;100.00;101137.41;5008809;28;20050;-94
2022/12/08 02:24:32;;;;;;;194.75;90.88;;;;;;;5.18;100.00;101150.56;5013322;28;20046;-93
2022/12/08 02:27:20;;;;;;;180.55;82.97;;;;;;;4.94;100.00;101135.53;5012353;28;20043;-95
2022/12/08 02:30:08;;;;;;;184.82;88.10;;;;;;;5.04;100.00;101133.56;5010969;28;20034;-94
2022/12/08 02:33:06;;;;;;;180.15;88.80;;;;;;;5.07;100.00;101133.25;5014492;28;20053;-94
2022/12/08 02:35:39;;;;;;;164.82;86.28;;;;;;;4.99;100.00;101136.69;5013540;28;20069;-95
2022/12/08 02:38:14;;;;;;;168.40;82.55;;;;;;;5.12;100.00;101132.78;5021272;28;20038;-94
2022/12/08 02:40:49;;;;;;;159.70;92.82;;;;;;;5.13;100.00;101137.06;5020976;28;20085;-93
2022/12/08 02:43:26;;;;;;;163.00;88.53;;;;;;;5.03;100.00;101142.47;5018692;28;20047;-93
2022/12/08 02:45:59;;;;;;;159.13;98.50;;;;;;;5.15;100.00;101137.72;5020200;28;20077;-93
2022/12/08 02:48:27;;;;;;;150.98;87.07;;;;;;;5.17;100.00;101133.94;5020016;28;20050;-94
2022/12/08 02:50:56;;;;;;;156.13;85.18;;;;;;;5.11;100.00;101136.38;5020336;28;20026;-94
2022/12/08 02:53:23;;;;;;;158.32;92.45;;;;;;;5.19;100.00;101146.94;5019509;28;20077;-93
2022/12/08 02:56:01;;;;;;;158.57;91.72;;;;;;;5.13;100.00;101158.13;5016914;28;20057;-94
2022/12/08 02:59:01;;;;;;;158.07;87.78;;;;;;;5.18;100.00;101169.00;5015909;28;20046;-94
2022/12/08 03:01:56;;;;;;;154.45;91.00;;;;;;;5.17;100.00;101154.19;5038378;23;20084;-85
2022/12/08 03:04:35;;;;;;;151.80;92.07;;;;;;;5.22;100.00;101163.25;5036481;28;20045;-81
2022/12/08 03:07:08;;;;;;;141.55;90.53;;;;;;;5.10;100.00;101163.72;5036724;28;20151;-82
2022/12/08 03:09:42;;;;;;;148.02;94.70;;;;;;;5.17;100.00;101164.72;5033435;28;20569;-82
2022/12/08 03:12:16;;;;;;;141.30;83.40;;;;;;;5.20;100.00;101159.13;5036816;28;20053;-82
2022/12/08 03:14:53;;;;;;;129.98;83.22;;;;;;;5.30;100.00;101151.13;5037306;28;20111;-84
2022/12/08 03:17:23;;;;;;;135.50;81.00;;;;;;;5.19;100.00;101154.84;5036962;28;20050;-82
2022/12/08 03:19:50;;;;;;;136.77;85.78;;;;;;;5.03;100.00;101158.25;5036286;28;20049;-82
2022/12/08 03:22:24;;;;;;;131.10;87.20;;;;;;;5.10;100.00;101169.78;5036697;28;20132;-84
2022/12/08 03:24:53;;;;;;;120.28;81.20;;;;;;;5.16;100.00;101173.59;5036598;28;20115;-83
2022/12/08 03:27:25;;;;;;;127.35;84.85;;;;;;;5.19;100.00;101173.28;5036658;28;20057;-85
2022/12/08 03:29:54;;;;;;;119.25;76.30;;;;;;;5.10;100.00;101168.97;5036880;28;20061;-83
2022/12/08 03:32:26;;;;;;;106.10;71.63;;;;;;;5.18;100.00;101158.47;5036328;28;20421;-85
2022/12/08 03:34:56;;;;;;;105.55;71.47;;;;;;;5.14;100.00;101160.59;5036831;28;20052;-85
2022/12/08 03:37:24;;;;;;;102.32;65.80;;;;;;;5.13;100.00;101163.38;5036792;28;20072;-83
2022/12/08 03:39:52;;;;;;;106.40;69.10;;;;;;;5.01;100.00;101161.03;5036703;28;20088;-85
2022/12/08 03:42:19;;;;;;;96.03;64.07;;;;;;;5.07;100.00;101166.66;5036485;28;20057;-83
2022/12/08 03:44:46;;;;;;;104.40;62.75;;;;;;;5.16;100.00;101158.63;5036264;28;20107;-86
2022/12/08 03:47:22;;;;;;;97.82;58.40;;;;;;;5.17;100.00;101155.00;5035718;28;20463;-86
2022/12/08 03:49:57;;;;;;;98.72;60.40;;;;;;;5.11;100.00;101175.88;5036031;28;20544;-86
2022/12/08 03:52:26;;;;;;;110.68;64.35;;;;;;;5.16;100.00;101184.13;5035872;28;20103;-83
2022/12/08 03:54:53;;;;;;;98.50;62.45;;;;;;;5.16;100.00;101170.97;5036023;28;20116;-83
2022/12/08 03:57:20;;;;;;;119.90;67.13;;;;;;;5.12;100.00;101162.56;5026779;28;20045;-85
2022/12/08 03:59:48;;;;;;;112.13;65.57;;;;;;;5.07;100.00;101167.47;5031008;28;20445;-85
2022/12/08 04:02:21;;;;;;;109.93;61.10;;;;;;;5.22;100.00;101175.59;5035649;28;20057;-85
2022/12/08 04:04:56;;;;;;;113.30;60.80;;;;;;;5.26;100.00;101185.66;5036145;28;20056;-87
2022/12/08 04:07:23;;;;;;;125.28;59.92;;;;;;;5.25;100.00;101181.38;5036419;28;20049;-83
2022/12/08 04:09:51;;;;;;;115.85;59.60;;;;;;;5.26;100.00;101190.09;5035985;28;20060;-83
2022/12/08 04:12:19;;;;;;;124.28;58.53;;;;;;;5.25;100.00;101184.00;5035545;28;20111;-84
2022/12/08 04:14:46;;;;;;;125.05;56.88;;;;;;;5.13;100.00;101180.00;5036191;28;20057;-83
2022/12/08 04:17:13;;;;;;;129.15;60.65;;;;;;;5.13;100.00;101184.47;5035987;28;20050;-83
2022/12/08 04:19:40;;;;;;;114.53;57.30;;;;;;;5.23;100.00;101191.25;5036268;28;20056;-83
2022/12/08 04:22:08;;;;;;;110.00;58.53;;;;;;;5.29;100.00;101187.13;5036145;28;20132;-85
2022/12/08 04:24:36;;;;;;;110.78;57.42;;;;;;;5.32;100.00;101189.44;5035656;28;20049;-86
2022/12/08 04:27:06;;;;;;;108.80;60.58;;;;;;;5.39;100.00;101192.28;5035476;28;20474;-84
2022/12/08 04:29:41;;;;;;;111.28;64.57;;;;;;;5.28;100.00;101193.41;5019953;28;20115;-85
2022/12/08 04:32:08;;;;;;;99.00;58.75;;;;;;;5.30;100.00;101191.44;5035311;28;20087;-85
2022/12/08 04:34:35;;;;;;;105.53;57.35;;;;;;;5.21;100.00;101193.22;5035953;28;20049;-83
2022/12/08 04:37:02;;;;;;;95.65;56.47;;;;;;;5.13;100.00;101192.34;5034867;28;20042;-83
2022/12/08 04:39:30;;;;;;;103.18;62.38;;;;;;;5.23;100.00;101188.63;5035285;28;20050;-86
2022/12/08 04:41:56;;;;;;;90.40;60.35;;;;;;;5.35;100.00;101189.13;5035370;28;20057;-83
2022/12/08 04:44:25;;;;;;;88.53;58.38;;;;;;;5.24;100.00;101187.63;5034301;28;20041;-83
2022/12/08 04:47:00;;;;;;;103.25;61.15;;;;;;;5.39;100.00;101190.47;5017058;28;20049;-86
2022/12/08 04:49:27;;;;;;;103.93;59.40;;;;;;;5.39;100.00;101187.84;5015819;28;20050;-82
2022/12/08 04:51:54;;;;;;;98.13;62.05;;;;;;;5.37;100.00;101194.25;5027564;28;20128;-82
2022/12/08 04:54:21;;;;;;;83.57;55.78;;;;;;;5.35;100.00;101191.75;5028878;28;20837;-81
2022/12/08 04:56:48;;;;;;;76.75;54.13;;;;;;;5.33;100.00;101185.03;5026204;28;20119;-84
2022/12/08 04:59:15;;;;;;;81.30;54.55;;;;;;;5.30;100.00;101178.28;5029931;28;20301;-83
2022/12/08 05:01:43;;;;;;;72.82;52.10;;;;;;;5.21;100.00;101179.22;5026967;28;20061;-83
2022/12/08 05:04:12;;;;;;;72.40;50.83;;;;;;;5.17;100.00;101191.88;5032784;28;20528;-82
2022/12/08 05:06:39;;;;;;;61.00;48.30;;;;;;;5.20;100.00;101191.53;5034997;28;20051;-84
2022/12/08 05:09:12;;;;;;;63.78;50.45;;;;;;;5.31;100.00;101185.19;5034899;28;20119;-85
2022/12/08 05:11:46;;;;;;;69.55;49.85;;;;;;;5.33;100.00;101195.56;5034745;28;20543;-84
2022/12/08 05:14:14;;;;;;;68.50;48.70;;;;;;;5.27;100.00;101187.31;5034598;28;20041;-82
2022/12/08 05:16:44;;;;;;;69.85;49.42;;;;;;;5.37;100.00;101181.91;5034750;28;20132;-85
2022/12/08 05:19:16;;;;;;;58.28;46.38;;;;;;;5.29;100.00;101181.88;5028216;28;20050;-85
2022/12/08 05:21:46;;;;;;;66.60;47.28;;;;;;;5.27;100.00;101195.22;5015146;28;20053;-84
2022/12/08 05:24:13;;;;;;;64.50;47.17;;;;;;;5.19;100.00;101194.34;5015424;28;20061;-83
2022/12/08 05:26:42;;;;;;;61.20;47.72;;;;;;;5.08;100.00;101195.44;5034694;28;20045;-84
2022/12/08 05:29:14;;;;;;;66.55;48.75;;;;;;;5.22;100.00;101189.59;5032813;28;20061;-83
2022/12/08 05:31:45;;;;;;;72.55;51.33;;;;;;;5.12;100.00;101204.69;5015056;28;20115;-85
2022/12/08 05:34:13;;;;;;;64.10;49.70;;;;;;;5.16;100.00;101205.22;5015116;28;20058;-81
2022/12/08 05:36:40;;;;;;;63.53;48.55;;;;;;;5.30;100.00;101215.16;5018006;28;20112;-81
2022/12/08 05:39:12;;;;;;;75.55;52.35;;;;;;;5.33;100.00;101214.00;5031811;28;20049;-84
2022/12/08 05:41:39;;;;;;;61.80;46.70;;;;;;;5.22;100.00;101209.84;5017961;28;20391;-83
2022/12/08 05:44:06;;;;;;;72.82;50.22;;;;;;;5.22;100.00;101218.56;5028833;28;20049;-86
2022/12/08 05:46:34;;;;;;;72.32;48.75;;;;;;;5.38;100.00;101216.97;5014527;28;20475;-85
2022/12/08 05:49:03;;;;;;;56.17;46.75;;;;;;;5.39;100.00;101219.47;5014568;28;20053;-84
2022/12/08 05:51:36;;;;;;;67.75;50.25;;;;;;;5.36;100.00;101222.41;5014498;28;20104;-84
2022/12/08 05:54:03;;;;;;;75.25;52.38;;;;;;;5.37;100.00;101225.88;5014686;28;20088;-82
2022/12/08 05:56:32;;;;;;;77.05;50.00;;;;;;;5.30;100.00;101223.06;5014557;28;20108;-84
2022/12/08 05:58:59;;;;;;;79.93;51.45;;;;;;;5.28;100.00;101222.38;5014548;28;20069;-84
2022/12/08 06:01:28;;;;;;;76.72;50.03;;;;;;;5.19;100.00;101231.22;5013554;28;20084;-82
2022/12/08 06:03:57;;;;;;;75.75;48.55;;;;;;;5.21;100.00;101227.44;5014393;28;20399;-82
2022/12/08 06:06:25;;;;;;;80.30;50.50;;;;;;;5.17;100.00;101241.06;5014537;28;20058;-85
2022/12/08 06:08:53;;;;;;;77.65;49.70;;;;;;;5.14;100.00;101251.94;5014253;28;20061;-82
2022/12/08 06:11:28;;;;;;;73.80;49.13;;;;;;;5.20;100.00;101251.28;5014272;28;20054;-85
2022/12/08 06:13:59;;;;;;;70.10;47.63;;;;;;;5.28;100.00;101251.34;5011247;28;20055;-86
2022/12/08 06:16:27;;;;;;;65.60;48.40;;;;;;;5.28;100.00;101256.63;5020057;28;20114;-84
2022/12/08 06:18:57;;;;;;;74.40;49.95;;;;;;;5.22;100.00;101247.53;5031227;28;20405;-85
2022/12/08 06:21:32;;;;;;;67.40;49.35;;;;;;;5.30;100.00;101252.03;5030223;28;20076;-84
2022/12/08 06:24:00;;;;;;;72.13;47.50;;;;;;;5.25;100.00;101255.13;5032791;28;20049;-82
2022/12/08 06:26:27;;;;;;;66.60;46.47;;;;;;;5.33;100.00;101256.97;5031561;28;20056;-84
2022/12/08 06:29:04;;;;;;;71.05;48.03;;;;;;;5.40;100.00;101257.16;5033485;28;20053;-87
2022/12/08 06:31:31;;;;;;;65.47;48.05;;;;;;;5.36;100.00;101264.56;5034260;28;20053;-82
2022/12/08 06:33:58;;;;;;;70.07;49.65;;;;;;;5.36;100.00;101256.66;5031675;28;20291;-82
2022/12/08 06:36:27;;;;;;;77.95;51.63;;;;;;;5.27;100.00;101253.16;5031421;28;20103;-84
2022/12/08 06:38:56;;;;;;;71.65;49.83;;;;;;;5.35;100.00;101252.34;5010489;28;20110;-83
2022/12/08 06:41:24;;;;;;;82.30;51.45;;;;;;;5.38;100.00;101249.41;5036487;28;20429;-87
2022/12/08 06:43:55;;;;;;;81.70;51.00;;;;;;;5.41;100.00;101258.78;5013550;28;20050;-87
2022/12/08 06:46:23;;;;;;;73.63;50.28;;;;;;;5.38;100.00;101259.94;5013397;28;20525;-83
2022/12/08 06:48:51;;;;;;;78.25;48.88;;;;;;;5.42;100.00;101263.94;5013461;28;20084;-85
2022/12/08 06:51:21;;;;;;;91.05;51.10;;;;;;;5.35;100.00;101273.41;5013882;28;20069;-85
2022/12/08 06:53:49;;;;;;;84.20;51.22;;;;;;;5.36;100.00;101269.00;5013703;28;20481;-86
2022/12/08 06:56:19;;;;;;;75.20;49.10;;;;;;;5.42;100.00;101276.28;5012757;28;20470;-86
2022/12/08 06:58:48;;;;;;;65.00;47.88;;;;;;;5.34;100.00;101269.16;5013254;28;20053;-83
2022/12/08 07:01:15;;;;;;;73.30;47.50;;;;;;;5.53;100.00;101270.69;5012119;28;20494;-82
2022/12/08 07:03:43;;;;;;;70.70;49.08;;;;;;;5.48;100.00;101276.47;5013046;28;20108;-82
2022/12/08 07:06:15;;;;;;;72.38;50.42;;;;;;;5.48;100.00;101273.00;5013412;28;20127;-82
2022/12/08 07:08:43;;;;;;;;;;;;;;;5.23;100.00;101275.53;5014061;28;20132;-85
2022/12/08 07:11:15;;;;;;;62.92;48.88;;;;;;;5.18;100.00;101277.81;5011812;28;19928;-86
2022/12/08 07:13:46;;;;;;;61.55;50.20;;;;;;;5.38;100.00;101281.00;5024132;28;20076;-84
2022/12/08 07:16:14;;;;;;;58.28;47.38;;;;;;;5.40;100.00;101276.41;5031592;28;20485;-85
2022/12/08 07:18:41;;;;;;;59.60;46.15;;;;;;;5.43;100.00;101283.19;5032925;28;20127;-82
2022/12/08 07:21:27;;;;;;;65.50;49.70;;;;;;;5.49;100.00;101272.00;5034383;28;20073;-87
2022/12/08 07:23:57;;;;;;;61.97;48.33;;;;;;;5.57;100.00;101266.78;5036527;28;20046;-84
2022/12/08 07:26:24;;;;;;;65.40;45.03;;;;;;;5.58;100.00;101273.69;5036267;28;20401;-81
2022/12/08 07:28:52;;;;;;;48.85;43.75;;;;;;;5.29;100.00;101281.97;5036341;28;20045;-82
2022/12/08 07:31:23;;;;;;;59.83;49.63;;;;;;;5.51;100.00;101284.06;5036596;28;20538;-81
2022/12/08 07:33:51;;;;;;;63.92;50.05;;;;;;;5.58;100.00;101272.88;5036654;28;20057;-82
2022/12/08 07:36:18;;;;;;;96.57;70.50;;;;;;;5.54;100.00;101266.25;5036716;28;20195;-86
2022/12/08 07:38:47;;;;;;;93.35;68.97;;;;;;;5.54;100.00;101269.72;5036546;28;20123;-82
2022/12/08 07:41:20;;;;;;;84.95;63.15;;;;;;;5.69;100.00;101276.03;5036370;28;20453;-84
2022/12/08 07:43:56;;;;;;;81.03;58.45;;;;;;;5.54;100.00;101287.34;5036099;28;20061;-84
2022/12/08 07:46:25;;;;;;;60.30;45.38;;;;;;;5.41;100.00;101295.69;5036218;28;20517;-82
2022/12/08 07:48:53;;;;;;;57.10;44.17;;;;;;;5.41;100.00;101298.31;5036271;28;20119;-83
2022/12/08 07:51:20;;;;;;;50.22;44.78;;;;;;;5.42;100.00;101295.53;5025825;28;20050;-82
2022/12/08 07:53:49;;;;;;;55.45;47.78;;;;;;;5.51;100.00;101286.69;5025386;28;20050;-83
2022/12/08 07:56:16;;;;;;;59.80;46.67;;;;;;;5.50;100.00;101295.56;5022990;28;20072;-84
2022/12/08 07:58:44;;;;;;;53.22;46.78;;;;;;;5.55;100.00;101291.63;5022277;28;20054;-82
2022/12/08 08:01:24;;;;;;;50.90;45.33;;;;;;;5.50;100.00;101281.56;5027095;28;20069;-84
2022/12/08 08:03:52;;;;;;;53.13;47.10;;;;;;;5.42;100.00;101286.81;5026410;28;20137;-81
2022/12/08 08:06:19;;;;;;;49.10;43.78;;;;;;;5.41;100.00;101293.06;5027004;28;20061;-82
2022/12/08 08:08:46;;;;;;;49.08;43.80;;;;;;;5.54;100.00;101308.41;5022301;28;20045;-84
2022/12/08 08:11:13;;;;;;;51.47;45.95;;;;;;;5.54;100.00;101305.78;5028474;28;20042;-84
2022/12/08 08:13:42;;;;;;;48.78;43.60;;;;;;;5.58;100.00;101313.22;5016027;28;20054;-83
2022/12/08 08:16:12;;;;;;;50.17;44.72;;;;;;;5.43;100.00;101313.00;5026699;28;20470;-81
2022/12/08 08:18:40;;;;;;;49.58;44.70;;;;;;;5.33;100.00;101314.09;5015383;28;20450;-79
2022/12/08 08:21:07;;;;;;;51.72;45.95;;;;;;;5.27;100.00;101311.09;5026673;28;20045;-81
2022/12/08 08:23:37;;;;;;;50.70;45.25;;;;;;;5.71;100.00;101300.41;5015418;28;20058;-84
2022/12/08 08:26:05;;;;;;;50.33;45.03;;;;;;;5.68;100.00;101306.00;5018041;28;20050;-82
2022/12/08 08:28:35;;;;;;;50.28;44.85;;;;;;;5.68;100.00;101289.38;5035426;28;20049;-86
2022/12/08 08:31:02;;;;;;;53.10;46.05;;;;;;;5.60;100.00;101276.16;5035337;28;20120;-82
2022/12/08 08:33:30;;;;;;;52.88;44.67;;;;;;;5.53;100.00;101280.41;5035088;28;20049;-82
2022/12/08 08:35:59;;;;;;;49.47;44.13;;;;;;;5.65;100.00;101303.69;5031583;28;20100;-85
2022/12/08 08:38:26;;;;;;;50.90;44.85;;;;;;;5.66;100.00;101299.25;5015369;28;20046;-83
2022/12/08 08:40:53;;;;;;;50.10;44.78;;;;;;;5.62;100.00;101288.19;5015876;28;20079;-81
2022/12/08 08:43:29;;;;;;;53.50;44.47;;;;;;;5.73;100.00;101295.00;5035147;28;20057;-86
2022/12/08 08:45:58;;;;;;;51.22;45.70;;;;;;;5.47;100.00;101293.22;5019177;28;20541;-82
2022/12/08 08:48:25;;;;;;;58.17;46.13;;;;;;;5.61;100.00;101291.81;5025795;28;20140;-82
2022/12/08 08:50:52;;;;;;;52.20;46.53;;;;;;;5.37;100.00;101300.44;5028790;28;20045;-81
2022/12/08 08:53:21;;;;;;;54.10;47.17;;;;;;;5.37;100.00;101289.91;5020360;28;20477;-84
2022/12/08 08:55:49;;;;;;;53.45;47.67;;;;;;;5.34;100.00;101298.13;5026236;28;20041;-85
2022/12/08 08:58:16;;;;;;;51.72;46.25;;;;;;;5.38;100.00;101283.66;5029383;28;20041;-85
2022/12/08 09:00:43;;;;;;;60.72;47.67;;;;;;;5.73;100.00;101273.91;5022460;28;20454;-84
2022/12/08 09:03:11;;;;;;;54.50;46.10;;;;;;;5.61;100.00;101267.28;5023572;28;20061;-82
2022/12/08 09:05:39;;;;;;;52.42;46.72;;;;;;;5.55;100.00;101265.28;5032379;28;20049;-82
2022/12/08 09:08:09;;;;;;;56.55;45.38;;;;;;;5.64;100.00;101256.41;5026708;28;20069;-85
2022/12/08 09:10:37;;;;;;;54.22;46.03;;;;;;;5.90;100.00;101264.22;5035005;28;20053;-82
2022/12/08 09:13:06;;;;;;;56.20;45.83;;;;;;;5.83;100.00;101261.41;5034741;28;20049;-86
2022/12/08 09:15:34;;;;;;;52.55;46.85;;;;;;;5.72;100.00;101259.09;5034719;28;20482;-84
2022/12/08 09:18:02;;;;;;;59.85;49.45;;;;;;;5.82;100.00;101257.13;5034570;28;20461;-87
2022/12/08 09:20:28;;;;;;;55.63;47.28;;;;;;;5.87;100.00;101246.94;5034640;28;20049;-86
2022/12/08 09:22:56;;;;;;;66.20;51.75;;;;;;;6.06;100.00;101253.75;5034552;28;20049;-86
2022/12/08 09:25:23;;;;;;;61.78;48.28;;;;;;;6.07;100.00;101249.28;5034533;28;20046;-85
2022/12/08 09:27:54;;;;;;;49.72;44.58;;;;;;;5.88;100.00;101245.94;5019296;28;20073;-82
2022/12/08 09:30:20;;;;;;;64.00;50.28;;;;;;;5.83;100.00;101257.94;5014813;28;20046;-82
2022/12/08 09:32:53;;;;;;;56.33;47.13;;;;;;;5.72;100.00;101249.38;5014910;28;20050;-84
2022/12/08 09:35:21;;;;;;;60.15;46.15;;;;;;;5.73;100.00;101243.09;5019318;28;20045;-85
2022/12/08 09:37:48;;;;;;;55.65;49.58;;;;;;;5.85;100.00;101237.53;5034098;28;20054;-82
2022/12/08 09:40:24;;;;;;;52.38;45.40;;;;;;;5.95;100.00;101227.69;5034293;28;20374;-86
2022/12/08 09:43:03;;;;;;;114.45;69.95;;;;;;;5.87;100.00;101248.72;5028272;28;20046;-85
2022/12/08 09:45:34;;;;;;;64.55;51.17;;;;;;;5.59;100.00;101256.06;5013606;28;20119;-85
2022/12/08 09:48:10;;;;;;;54.58;46.78;;;;;;;5.60;100.00;101252.44;5013904;28;20057;-81
2022/12/08 09:50:54;;;;;;;56.88;47.28;;;;;;;5.96;100.00;101255.69;5014543;28;20462;-85
2022/12/08 09:53:27;;;;;;;52.92;47.15;;;;;;;5.95;100.00;101244.31;5014673;28;20119;-84
2022/12/08 09:56:07;;;;;;;52.70;46.25;;;;;;;5.74;100.00;101252.66;5029002;28;20123;-84
2022/12/08 09:58:49;;;;;;;53.63;45.63;;;;;;;5.84;100.00;101241.97;5056070;23;20049;-95
2022/12/08 10:01:16;;;;;;;54.30;48.38;;;;;;;5.92;100.00;101230.59;5050054;28;20053;-93
2022/12/08 10:03:43;;;;;;;62.50;51.58;;;;;;;5.88;100.00;101221.38;5027044;28;20045;-93
2022/12/08 10:06:20;;;;;;;57.92;50.63;;;;;;;5.82;100.00;101204.41;5027546;28;20046;-93
2022/12/08 10:09:00;;;;;;;73.45;57.58;;;;;;;5.82;100.00;101199.13;5026689;28;20073;-93
2022/12/08 10:11:35;;;;;;;51.40;45.88;;;;;;;5.88;100.00;101195.84;5026707;28;20089;-93
2022/12/08 10:14:14;;;;;;;64.32;55.05;;;;;;;5.91;100.00;101192.88;5026469;28;20074;-93
2022/12/08 10:16:48;;;;;;;63.15;53.10;;;;;;;5.91;100.00;101192.88;5028758;28;20114;-93
2022/12/08 10:19:20;;;;;;;53.15;47.05;;;;;;;5.83;100.00;101186.75;5025768;28;20050;-92
2022/12/08 10:21:47;;;;;;;55.28;49.33;;;;;;;5.77;100.00;101179.50;5022887;28;20050;-94
2022/12/08 10:24:26;;;;;;;59.17;49.60;;;;;;;5.72;100.00;101177.38;5029056;28;20045;-93
2022/12/08 10:26:54;;;;;;;54.08;48.17;;;;;;;5.79;100.00;101173.09;5028709;28;20038;-93
2022/12/08 10:29:22;;;;;;;58.65;50.53;;;;;;;6.03;100.00;101179.41;5025666;28;20446;-93
2022/12/08 10:31:49;;;;;;;62.53;51.85;;;;;;;5.80;100.00;101176.56;5029254;28;20089;-93
2022/12/08 10:34:21;;;;;;;59.88;53.42;;;;;;;5.91;100.00;101184.16;5029062;28;20053;-92
2022/12/08 10:36:51;;;;;;;57.25;51.10;;;;;;;5.93;100.00;101192.72;5028607;28;20054;-92
2022/12/08 10:39:33;;;;;;;60.88;50.55;;;;;;;5.83;100.00;101179.69;5028458;28;20057;-94
2022/12/08 10:42:09;;;;;;;59.03;50.53;;;;;;;5.81;100.00;101184.31;5030898;28;20042;-94
2022/12/08 10:44:54;;;;;;;56.40;50.28;;;;;;;6.06;100.00;101208.09;5030302;28;20060;-93
2022/12/08 10:47:23;;;;;;;58.25;50.95;;;;;;;6.08;100.00;101208.72;5026724;28;20046;-93
2022/12/08 10:50:07;;;;;;;62.17;52.88;;;;;;;6.23;100.00;101193.88;5028586;28;20062;-95
2022/12/08 10:52:38;;;;;;;53.00;47.58;;;;;;;6.17;100.00;101187.50;5033359;28;20046;-95
2022/12/08 10:55:15;;;;;;;54.13;48.63;;;;;;;6.20;100.00;101183.66;5033356;28;20046;-93
2022/12/08 10:57:41;;;;;;;61.38;52.97;;;;;;;6.33;100.00;101189.28;5035404;28;20040;-93
2022/12/08 11:00:13;;;;;;;59.58;51.25;;;;;;;6.14;100.00;101174.63;5035846;28;20068;-93
2022/12/08 11:02:52;;;;;;;57.60;50.17;;;;;;;6.24;100.00;101178.91;5035602;28;20474;-92
2022/12/08 11:05:21;;;;;;;60.70;53.95;;;;;;;6.30;100.00;101180.88;5035535;28;20110;-93
2022/12/08 11:07:51;;;;;;;55.47;49.22;;;;;;;6.24;100.00;101173.63;5033436;28;20050;-93
2022/12/08 11:10:20;;;;;;;59.50;53.13;;;;;;;6.06;100.00;101166.72;5036357;28;20045;-92
2022/12/08 11:12:50;;;;;;;58.35;51.92;;;;;;;6.20;100.00;101170.47;5036327;28;20049;-93
2022/12/08 11:15:19;;;;;;;66.00;56.10;;;;;;;6.18;100.00;101168.03;5032841;28;20061;-93
2022/12/08 11:17:59;;;;;;;68.70;58.30;;;;;;;6.47;100.00;101176.38;5035918;28;20050;-93
2022/12/08 11:20:26;;;;;;;70.68;61.15;;;;;;;6.29;100.00;101172.13;5036431;28;20056;-93
2022/12/08 11:22:54;;;;;;;55.47;48.47;;;;;;;6.14;100.00;101171.13;5036075;28;20033;-93
2022/12/08 11:25:23;;;;;;;63.60;54.08;;;;;;;6.11;100.00;101176.75;5039808;28;20110;-93
2022/12/08 11:27:56;;;;;;;75.07;62.50;;;;;;;6.24;100.00;101163.91;5023918;28;20127;-93